Time;durP1;ratioP1;P1;durP2;ratioP2;P2;SDS_P1;SDS_P2;PMS_P1;PMS_P2;Temp;Humidity;BMP_temperature;BMP_pressure;BME280_temperature;BME280_humidity;BME280_pressure;Samples;Min_cycle;Max_cycle;Signal;HPM_P1;HPM_P2
2021/12/26 00:00:47;;;;;;;;;;;4.70;84.90;;;;;;5002657;28;89947;-46
2021/12/26 00:03:13;;;;;;;;;;;4.70;84.90;;;;;;5002381;28;88529;-46
2021/12/26 00:05:39;;;;;;;;;;;4.70;84.90;;;;;;5002696;28;87127;-45
2021/12/26 00:08:04;;;;;;;;;;;4.70;84.70;;;;;;5002818;28;88987;-46
2021/12/26 00:10:30;;;;;;;;;;;4.70;84.90;;;;;;5002335;28;88755;-46
2021/12/26 00:12:56;;;;;;;;;;;4.70;84.80;;;;;;5005493;28;87008;-45
2021/12/26 00:15:22;;;;;;;;;;;4.70;84.80;;;;;;5001987;28;89077;-45
2021/12/26 00:17:47;;;;;;;;;;;4.70;84.90;;;;;;5004000;28;87147;-45
2021/12/26 00:20:13;;;;;;;;;;;4.70;84.80;;;;;;5005794;28;88900;-46
2021/12/26 00:22:39;;;;;;;;;;;4.70;84.80;;;;;;5004890;28;90828;-46
2021/12/26 00:25:07;;;;;;;;;;;4.70;84.80;;;;;;5005742;28;87056;-46
2021/12/26 00:27:33;;;;;;;;;;;4.70;84.80;;;;;;5005802;28;88030;-46
2021/12/26 00:29:58;;;;;;;;;;;4.70;84.80;;;;;;5005289;28;89710;-47
2021/12/26 00:32:24;;;;;;;;;;;4.70;84.80;;;;;;5005978;28;87159;-46
2021/12/26 00:34:50;;;;;;;;;;;4.70;84.90;;;;;;5008108;28;88884;-46
2021/12/26 00:37:16;;;;;;;;;;;4.70;84.90;;;;;;5005779;28;87122;-46
2021/12/26 00:39:42;;;;;;;;;;;4.70;84.90;;;;;;5005912;28;89189;-46
2021/12/26 00:42:07;;;;;;;;;;;4.70;84.90;;;;;;5005260;28;88058;-46
2021/12/26 00:44:38;;;;;;;;;;;4.70;84.90;;;;;;5005407;28;87126;-46
2021/12/26 00:47:04;;;;;;;;;;;4.70;84.80;;;;;;5004948;28;88746;-46
2021/12/26 00:49:30;;;;;;;;;;;4.70;84.90;;;;;;5005049;28;89612;-46
2021/12/26 00:51:55;;;;;;;;;;;4.60;85.40;;;;;;5005293;28;87043;-46
2021/12/26 00:54:21;;;;;;;;;;;4.60;84.90;;;;;;5008042;28;87276;-46
2021/12/26 00:56:47;;;;;;;;;;;4.70;84.90;;;;;;5005323;28;86815;-46
2021/12/26 00:59:13;;;;;;;;;;;4.60;84.80;;;;;;5005229;28;88909;-46
2021/12/26 01:01:39;;;;;;;;;;;4.70;85.00;;;;;;5004839;28;88514;-46
2021/12/26 01:04:04;;;;;;;;;;;4.60;85.00;;;;;;5005454;28;87025;-46
2021/12/26 01:06:30;;;;;;;;;;;4.60;84.90;;;;;;5005305;28;88331;-45
2021/12/26 01:08:56;;;;;;;;;;;4.60;84.80;;;;;;5004988;28;89503;-46
2021/12/26 01:11:34;;;;;;;;;;;4.60;84.90;;;;;;5004823;28;88028;-45
2021/12/26 01:14:00;;;;;;;;;;;4.60;84.80;;;;;;5004950;28;89680;-46
2021/12/26 01:16:28;;;;;;;;;;;4.60;84.70;;;;;;5007177;28;89699;-46
2021/12/26 01:18:59;;;;;;;;;;;4.60;84.80;;;;;;5004841;28;88513;-46
2021/12/26 01:21:26;;;;;;;;;;;4.60;84.80;;;;;;5004860;28;89551;-46
2021/12/26 01:23:56;;;;;;;;;;;4.60;84.80;;;;;;5004943;28;86839;-45
2021/12/26 01:26:22;;;;;;;;;;;4.60;84.80;;;;;;5005013;28;87409;-46
2021/12/26 01:28:48;;;;;;;;;;;4.60;84.80;;;;;;5003616;28;89466;-46
2021/12/26 01:31:18;;;;;;;;;;;4.60;84.80;;;;;;5004394;28;87089;-46
2021/12/26 01:33:48;;;;;;;;;;;4.60;84.90;;;;;;5004992;28;89087;-47
2021/12/26 01:36:13;;;;;;;;;;;4.60;84.90;;;;;;5003687;28;90748;-46
2021/12/26 01:38:39;;;;;;;;;;;4.60;84.70;;;;;;5007619;28;87042;-47
2021/12/26 01:41:09;;;;;;;;;;;4.60;84.70;;;;;;5004707;28;87305;-46
2021/12/26 01:43:35;;;;;;;;;;;4.60;84.80;;;;;;5004534;28;87206;-47
2021/12/26 01:46:01;;;;;;;;;;;4.60;84.70;;;;;;5004672;28;89060;-46
2021/12/26 01:48:27;;;;;;;;;;;4.60;84.50;;;;;;5004009;28;89153;-46
2021/12/26 01:50:52;;;;;;;;;;;4.60;84.60;;;;;;5004507;28;87166;-45
2021/12/26 01:53:20;;;;;;;;;;;4.60;84.60;;;;;;5005165;28;87486;-46
2021/12/26 01:55:46;;;;;;;;;;;4.60;84.70;;;;;;5003995;28;89431;-46
2021/12/26 01:58:14;;;;;;;;;;;4.60;84.70;;;;;;5004192;28;87079;-46
2021/12/26 02:00:41;;;;;;;;;;;4.60;84.60;;;;;;5006348;28;88744;-46
2021/12/26 02:03:06;;;;;;;;;;;4.60;84.60;;;;;;5004035;28;87162;-46
2021/12/26 02:05:32;;;;;;;;;;;4.60;85.10;;;;;;5004342;28;88939;-46
2021/12/26 02:07:57;;;;;;;;;;;4.60;84.50;;;;;;5003877;28;89981;-46
2021/12/26 02:10:23;;;;;;;;;;;4.60;84.60;;;;;;5004186;28;87187;-46
2021/12/26 02:12:48;;;;;;;;;;;4.60;84.50;;;;;;5004262;28;89073;-46
2021/12/26 02:15:14;;;;;;;;;;;4.60;84.50;;;;;;5003086;28;89729;-45
2021/12/26 02:17:39;;;;;;;;;;;4.60;84.50;;;;;;5004880;28;86388;-46
2021/12/26 02:20:27;;;;;;;;;;;4.50;84.40;;;;;;5004057;28;87986;-45
2021/12/26 02:22:58;;;;;;;;;;;4.60;84.70;;;;;;5006659;28;89369;-47
2021/12/26 02:25:30;;;;;;;;;;;4.60;84.60;;;;;;5003325;28;88929;-48
2021/12/26 02:27:56;;;;;;;;;;;4.60;84.50;;;;;;5003690;28;89387;-46
2021/12/26 02:30:23;;;;;;;;;;;4.50;84.60;;;;;;5003859;28;87507;-47
2021/12/26 02:32:50;;;;;;;;;;;4.60;84.60;;;;;;5003737;28;88746;-46
2021/12/26 02:35:17;;;;;;;;;;;4.60;84.70;;;;;;5003400;28;89713;-46
2021/12/26 02:37:42;;;;;;;;;;;4.50;84.60;;;;;;5003755;28;87088;-46
2021/12/26 02:40:08;;;;;;;;;;;4.50;84.50;;;;;;5003038;28;88999;-46
2021/12/26 02:42:34;;;;;;;;;;;4.50;85.30;;;;;;5003936;28;88829;-46
2021/12/26 02:44:59;;;;;;;;;;;4.50;84.60;;;;;;5006590;28;87025;-45
2021/12/26 02:47:39;;;;;;;;;;;4.50;84.60;;;;;;5003351;28;88345;-46
2021/12/26 02:50:10;;;;;;;;;;;4.50;84.60;;;;;;5002988;28;88053;-45
2021/12/26 02:52:35;;;;;;;;;;;4.50;84.70;;;;;;5003719;28;89707;-46
2021/12/26 02:55:01;;;;;;;;;;;4.50;84.60;;;;;;5003007;28;90193;-46
2021/12/26 02:57:27;;;;;;;;;;;4.50;84.60;;;;;;5003768;28;87204;-46
2021/12/26 02:59:53;;;;;;;;;;;4.50;84.50;;;;;;5003257;28;87956;-46
2021/12/26 03:02:18;;;;;;;;;;;4.50;84.60;;;;;;5003104;28;89129;-48
2021/12/26 03:04:44;;;;;;;;;;;4.50;84.50;;;;;;5006354;28;87185;-46
2021/12/26 03:07:09;;;;;;;;;;;4.50;84.70;;;;;;5003460;28;89343;-45
2021/12/26 03:09:44;;;;;;;;;;;4.50;84.80;;;;;;5003088;28;87244;-46
2021/12/26 03:12:10;;;;;;;;;;;4.50;84.60;;;;;;5003572;28;88202;-46
2021/12/26 03:14:36;;;;;;;;;;;4.50;84.70;;;;;;5001675;28;90463;-46
2021/12/26 03:17:02;;;;;;;;;;;4.50;84.60;;;;;;5003429;28;86948;-46
2021/12/26 03:19:30;;;;;;;;;;;4.50;84.80;;;;;;5003114;28;89025;-46
2021/12/26 03:21:56;;;;;;;;;;;4.50;84.60;;;;;;5002791;28;87493;-45
2021/12/26 03:24:21;;;;;;;;;;;4.50;84.70;;;;;;5002982;28;86936;-47
2021/12/26 03:26:47;;;;;;;;;;;4.50;84.70;;;;;;5005615;28;89387;-46
2021/12/26 03:29:12;;;;;;;;;;;4.50;84.60;;;;;;5003283;28;87130;-46
2021/12/26 03:31:41;;;;;;;;;;;4.50;84.80;;;;;;5003645;28;89049;-48
2021/12/26 03:34:07;;;;;;;;;;;4.50;84.60;;;;;;5002572;28;89620;-46
2021/12/26 03:36:32;;;;;;;;;;;4.50;84.60;;;;;;5002933;28;87119;-46
2021/12/26 03:38:58;;;;;;;;;;;4.50;84.80;;;;;;5002305;28;89510;-46
2021/12/26 03:41:23;;;;;;;;;;;4.50;84.60;;;;;;5002720;28;89504;-46
2021/12/26 03:43:49;;;;;;;;;;;4.50;84.70;;;;;;5002843;28;87163;-46
2021/12/26 03:46:14;;;;;;;;;;;4.50;84.80;;;;;;5002882;28;88692;-46
2021/12/26 03:48:40;;;;;;;;;;;4.50;84.70;;;;;;5005395;28;88459;-45
2021/12/26 03:51:05;;;;;;;;;;;4.50;84.80;;;;;;5002946;28;88001;-46
2021/12/26 03:53:31;;;;;;;;;;;4.50;84.80;;;;;;5005027;28;89538;-46
2021/12/26 03:55:58;;;;;;;;;;;4.50;84.80;;;;;;5007022;28;86318;-46
2021/12/26 03:58:23;;;;;;;;;;;4.50;84.70;;;;;;5006292;28;87199;-46
2021/12/26 04:00:49;;;;;;;;;;;4.50;84.90;;;;;;5005866;28;90306;-46
2021/12/26 04:03:15;;;;;;;;;;;4.50;84.80;;;;;;5005461;28;88008;-46
2021/12/26 04:05:40;;;;;;;;;;;4.40;84.60;;;;;;5006059;28;90007;-45
2021/12/26 04:08:06;;;;;;;;;;;4.50;84.90;;;;;;5005597;28;89085;-48
2021/12/26 04:10:32;;;;;;;;;;;4.50;84.90;;;;;;5008851;28;87719;-46
2021/12/26 04:12:58;;;;;;;;;;;4.40;85.00;;;;;;5005550;28;89039;-46
2021/12/26 04:15:24;;;;;;;;;;;4.40;84.80;;;;;;5005598;28;87169;-45
2021/12/26 04:17:51;;;;;;;;;;;4.50;85.00;;;;;;5005867;28;88767;-46
2021/12/26 04:20:17;;;;;;;;;;;4.50;84.60;;;;;;5006207;28;87364;-46
2021/12/26 04:22:43;;;;;;;;;;;4.40;84.70;;;;;;5005696;28;87082;-46
2021/12/26 04:25:08;;;;;;;;;;;4.50;84.80;;;;;;5005678;28;88750;-47
2021/12/26 04:27:34;;;;;;;;;;;4.40;84.60;;;;;;5004659;28;90723;-45
2021/12/26 04:30:00;;;;;;;;;;;4.40;84.70;;;;;;5005668;28;86959;-46
2021/12/26 04:32:26;;;;;;;;;;;4.50;84.80;;;;;;5008449;28;88809;-46
2021/12/26 04:34:51;;;;;;;;;;;4.40;84.90;;;;;;5005686;28;87032;-46
2021/12/26 04:37:17;;;;;;;;;;;4.40;84.80;;;;;;5005478;28;88754;-46
2021/12/26 04:39:42;;;;;;;;;;;4.40;84.90;;;;;;5005303;28;89559;-46
2021/12/26 04:42:08;;;;;;;;;;;4.40;84.90;;;;;;5005551;28;87134;-46
2021/12/26 04:44:34;;;;;;;;;;;4.40;85.00;;;;;;5005760;28;89399;-45
2021/12/26 04:46:59;;;;;;;;;;;4.40;85.00;;;;;;5005051;28;89507;-46
2021/12/26 04:49:25;;;;;;;;;;;4.40;85.10;;;;;;5005411;28;87284;-46
2021/12/26 04:51:50;;;;;;;;;;;4.40;85.10;;;;;;5004820;28;88923;-46
2021/12/26 04:54:16;;;;;;;;;;;4.40;85.00;;;;;;5008443;28;88218;-46
2021/12/26 04:56:41;;;;;;;;;;;4.40;85.70;;;;;;5005248;28;88875;-46
2021/12/26 04:59:07;;;;;;;;;;;4.40;85.80;;;;;;5004807;28;89435;-46
2021/12/26 05:01:33;;;;;;;;;;;4.40;85.20;;;;;;5005262;28;86900;-46
2021/12/26 05:03:59;;;;;;;;;;;4.40;85.30;;;;;;5004876;28;88567;-48
2021/12/26 05:06:27;;;;;;;;;;;4.40;85.30;;;;;;5004751;28;88314;-46
2021/12/26 05:08:53;;;;;;;;;;;4.40;85.10;;;;;;5005755;28;86524;-46
2021/12/26 05:11:19;;;;;;;;;;;4.40;85.10;;;;;;5005132;28;88204;-46
2021/12/26 05:13:44;;;;;;;;;;;4.40;85.20;;;;;;5007678;28;89465;-45
2021/12/26 05:16:10;;;;;;;;;;;4.40;85.30;;;;;;5004089;28;88942;-46
2021/12/26 05:18:35;;;;;;;;;;;4.40;85.30;;;;;;5004674;28;89414;-46
2021/12/26 05:21:01;;;;;;;;;;;4.40;85.20;;;;;;5004966;28;87103;-46
2021/12/26 05:23:26;;;;;;;;;;;4.40;85.90;;;;;;5004874;28;89486;-47
2021/12/26 05:25:52;;;;;;;;;;;4.40;85.40;;;;;;5004291;28;89432;-45
2021/12/26 05:28:18;;;;;;;;;;;4.40;85.00;;;;;;5005004;28;87146;-47
2021/12/26 05:30:43;;;;;;;;;;;4.40;85.30;;;;;;5004736;28;88842;-46
2021/12/26 05:33:09;;;;;;;;;;;4.40;85.50;;;;;;5004912;28;89381;-47
2021/12/26 05:35:34;;;;;;;;;;;4.40;85.50;;;;;;5007686;28;87029;-46
2021/12/26 05:38:00;;;;;;;;;;;4.40;85.60;;;;;;5004140;28;88335;-48
2021/12/26 05:40:26;;;;;;;;;;;4.40;85.40;;;;;;5003954;28;88003;-46
2021/12/26 05:42:51;;;;;;;;;;;4.40;85.40;;;;;;5005171;28;87502;-46
2021/12/26 05:45:17;;;;;;;;;;;4.40;85.40;;;;;;5004132;28;89452;-46
2021/12/26 05:47:43;;;;;;;;;;;4.40;85.50;;;;;;5004483;28;87086;-45
2021/12/26 05:50:10;;;;;;;;;;;4.40;85.50;;;;;;5004412;28;88937;-46
2021/12/26 05:52:36;;;;;;;;;;;4.40;85.50;;;;;;5003925;28;89812;-47
2021/12/26 05:55:02;;;;;;;;;;;4.40;85.70;;;;;;5004387;28;87058;-47
2021/12/26 05:57:28;;;;;;;;;;;4.40;85.40;;;;;;5007440;28;89183;-46
2021/12/26 05:59:53;;;;;;;;;;;4.40;85.40;;;;;;5004237;28;87181;-46
2021/12/26 06:02:19;;;;;;;;;;;4.40;85.40;;;;;;5004408;28;89250;-46
2021/12/26 06:04:44;;;;;;;;;;;4.40;85.50;;;;;;5003117;28;89918;-46
2021/12/26 06:07:10;;;;;;;;;;;4.40;85.60;;;;;;5003975;28;87205;-45
2021/12/26 06:09:36;;;;;;;;;;;4.40;86.00;;;;;;5004069;28;88838;-47
2021/12/26 06:12:01;;;;;;;;;;;4.40;86.10;;;;;;5004083;28;88030;-47
2021/12/26 06:14:27;;;;;;;;;;;4.40;85.90;;;;;;5003145;28;87220;-46
2021/12/26 06:16:52;;;;;;;;;;;4.40;85.80;;;;;;5004037;28;89107;-47
2021/12/26 06:19:18;;;;;;;;;;;4.40;85.80;;;;;;5006449;28;90049;-46
2021/12/26 06:21:43;;;;;;;;;;;4.40;85.90;;;;;;5004677;28;87245;-46
2021/12/26 06:24:09;;;;;;;;;;;4.40;85.60;;;;;;5003410;28;90137;-48
2021/12/26 06:26:35;;;;;;;;;;;4.40;85.70;;;;;;5004061;28;87144;-46
2021/12/26 06:29:00;;;;;;;;;;;4.40;85.50;;;;;;5003400;28;88955;-50
2021/12/26 06:31:26;;;;;;;;;;;4.40;85.50;;;;;;5003666;28;89473;-47
2021/12/26 06:33:51;;;;;;;;;;;4.40;85.40;;;;;;5003845;28;87085;-46
2021/12/26 06:36:17;;;;;;;;;;;4.40;85.50;;;;;;5003700;28;89009;-46
2021/12/26 06:38:43;;;;;;;;;;;4.40;85.50;;;;;;5003450;28;89429;-47
2021/12/26 06:41:09;;;;;;;;;;;4.40;85.60;;;;;;5006863;28;87203;-46
2021/12/26 06:43:35;;;;;;;;;;;4.40;85.50;;;;;;5003486;28;89427;-46
2021/12/26 06:46:00;;;;;;;;;;;4.30;85.50;;;;;;5004128;28;86400;-46
2021/12/26 06:48:26;;;;;;;;;;;4.40;85.40;;;;;;5003701;28;88160;-47
2021/12/26 06:50:52;;;;;;;;;;;4.40;85.30;;;;;;5003256;28;89946;-46
2021/12/26 06:53:17;;;;;;;;;;;4.40;85.30;;;;;;5002577;28;88067;-45
2021/12/26 06:55:44;;;;;;;;;;;4.40;85.30;;;;;;5003646;28;89964;-46
2021/12/26 06:58:09;;;;;;;;;;;4.30;85.30;;;;;;5003374;28;88034;-46
2021/12/26 07:00:35;;;;;;;;;;;4.40;85.30;;;;;;5003443;28;87111;-46
2021/12/26 07:03:01;;;;;;;;;;;4.30;85.30;;;;;;5005968;28;88702;-46
2021/12/26 07:05:27;;;;;;;;;;;4.40;85.40;;;;;;5003218;28;86837;-46
2021/12/26 07:07:52;;;;;;;;;;;4.40;85.30;;;;;;5003278;28;88380;-46
2021/12/26 07:10:18;;;;;;;;;;;4.40;85.40;;;;;;5003508;28;88458;-46
2021/12/26 07:12:44;;;;;;;;;;;4.40;85.50;;;;;;5002089;28;87273;-46
2021/12/26 07:15:10;;;;;;;;;;;4.40;85.40;;;;;;5001710;28;91084;-46
2021/12/26 07:17:36;;;;;;;;;;;4.40;85.50;;;;;;5002214;28;90898;-46
2021/12/26 07:20:02;;;;;;;;;;;4.40;85.40;;;;;;5003329;28;87155;-46
2021/12/26 07:22:27;;;;;;;;;;;4.40;85.30;;;;;;5005411;28;88814;-46
2021/12/26 07:24:53;;;;;;;;;;;4.40;85.30;;;;;;5002963;28;87288;-47
2021/12/26 07:27:18;;;;;;;;;;;4.40;85.30;;;;;;5004398;28;87634;-47
2021/12/26 07:29:44;;;;;;;;;;;4.40;85.30;;;;;;5006360;28;89849;-48
2021/12/26 07:32:10;;;;;;;;;;;4.40;85.30;;;;;;5007030;28;87111;-46
2021/12/26 07:34:36;;;;;;;;;;;4.40;85.30;;;;;;5006995;28;89295;-46
2021/12/26 07:37:02;;;;;;;;;;;4.40;85.30;;;;;;5006143;28;89570;-47
2021/12/26 07:39:27;;;;;;;;;;;4.40;85.30;;;;;;5006646;28;87189;-46
2021/12/26 07:41:53;;;;;;;;;;;4.40;85.30;;;;;;5006119;28;89458;-46
2021/12/26 07:44:18;;;;;;;;;;;4.40;85.30;;;;;;5009056;28;88572;-45
2021/12/26 07:46:44;;;;;;;;;;;4.40;85.30;;;;;;5006543;28;88188;-46
2021/12/26 07:49:09;;;;;;;;;;;4.40;85.30;;;;;;5005962;28;89481;-46
2021/12/26 07:51:35;;;;;;;;;;;4.40;85.30;;;;;;5006595;28;87185;-45
2021/12/26 07:54:01;;;;;;;;;;;4.40;85.40;;;;;;5006285;28;88826;-46
2021/12/26 07:56:30;;;;;;;;;;;4.40;85.40;;;;;;5006055;28;89678;-46
2021/12/26 07:58:56;;;;;;;;;;;4.40;85.30;;;;;;5007081;28;86534;-45
2021/12/26 08:01:22;;;;;;;;;;;4.40;85.40;;;;;;5006249;28;88651;-46
2021/12/26 08:03:48;;;;;;;;;;;4.40;85.50;;;;;;5005687;28;89520;-46
2021/12/26 08:06:18;;;;;;;;;;;4.40;85.40;;;;;;5008326;28;88034;-47
2021/12/26 08:08:47;;;;;;;;;;;4.40;85.30;;;;;;5005893;28;89740;-46
2021/12/26 08:11:13;;;;;;;;;;;4.40;85.30;;;;;;5006294;28;87163;-46
2021/12/26 08:13:39;;;;;;;;;;;4.40;85.30;;;;;;5006196;28;89105;-47
2021/12/26 08:16:05;;;;;;;;;;;4.40;85.30;;;;;;5005458;28;89530;-46
2021/12/26 08:18:31;;;;;;;;;;;4.40;85.40;;;;;;5005813;28;87168;-47
2021/12/26 08:20:56;;;;;;;;;;;4.40;85.40;;;;;;5005775;28;89279;-46
2021/12/26 08:23:22;;;;;;;;;;;4.40;86.00;;;;;;5006385;28;87288;-46
2021/12/26 08:25:48;;;;;;;;;;;4.40;85.50;;;;;;5005806;28;87131;-46
2021/12/26 08:28:14;;;;;;;;;;;4.40;85.60;;;;;;5008449;28;88925;-46
2021/12/26 08:30:41;;;;;;;;;;;4.50;85.40;;;;;;5005192;28;88113;-46
2021/12/26 08:33:07;;;;;;;;;;;4.40;85.60;;;;;;5005877;28;87513;-45
2021/12/26 08:35:34;;;;;;;;;;;4.50;85.60;;;;;;5005248;28;89730;-46
2021/12/26 08:37:59;;;;;;;;;;;4.50;85.50;;;;;;5003879;28;87094;-47
2021/12/26 08:40:25;;;;;;;;;;;4.50;85.50;;;;;;5005544;28;89092;-46
2021/12/26 08:42:51;;;;;;;;;;;4.50;85.50;;;;;;5005193;28;89844;-46
2021/12/26 08:45:16;;;;;;;;;;;4.50;85.40;;;;;;5005415;28;87110;-46
2021/12/26 08:47:42;;;;;;;;;;;4.50;85.40;;;;;;5005891;28;88865;-46
2021/12/26 08:50:09;;;;;;;;;;;4.50;85.30;;;;;;5006603;28;91154;-47
2021/12/26 08:52:35;;;;;;;;;;;4.50;85.30;;;;;;5005445;28;88940;-46
2021/12/26 08:55:01;;;;;;;;;;;4.50;85.90;;;;;;5004440;28;90083;-47
2021/12/26 08:57:26;;;;;;;;;;;4.50;85.30;;;;;;5005441;28;87141;-46
2021/12/26 08:59:52;;;;;;;;;;;4.60;85.40;;;;;;5005648;28;86940;-45
2021/12/26 09:02:17;;;;;;;;;;;4.50;85.30;;;;;;5005199;28;87250;-46
2021/12/26 09:04:43;;;;;;;;;;;4.60;85.40;;;;;;5004982;28;87115;-45
2021/12/26 09:07:09;;;;;;;;;;;4.60;85.40;;;;;;5005139;28;89019;-48
2021/12/26 09:09:35;;;;;;;;;;;4.60;85.40;;;;;;5004812;28;89143;-46
2021/12/26 09:12:01;;;;;;;;;;;4.60;85.40;;;;;;5008755;28;86293;-46
2021/12/26 09:14:29;;;;;;;;;;;4.60;85.40;;;;;;5004175;28;89874;-45
2021/12/26 09:16:55;;;;;;;;;;;4.60;85.40;;;;;;5005119;28;87031;-47
2021/12/26 09:19:21;;;;;;;;;;;4.60;85.40;;;;;;5004235;28;88898;-48
2021/12/26 09:21:47;;;;;;;;;;;4.60;85.40;;;;;;5004763;28;89671;-46
2021/12/26 09:24:13;;;;;;;;;;;4.60;85.50;;;;;;5004867;28;86908;-46
2021/12/26 09:26:38;;;;;;;;;;;4.60;85.50;;;;;;5005213;28;87338;-46
2021/12/26 09:29:04;;;;;;;;;;;4.60;85.50;;;;;;5004666;28;89608;-46
2021/12/26 09:31:29;;;;;;;;;;;4.60;85.50;;;;;;5007683;28;87043;-47
2021/12/26 09:33:55;;;;;;;;;;;4.60;86.20;;;;;;5004308;28;89329;-46
2021/12/26 09:36:20;;;;;;;;;;;4.60;85.90;;;;;;5004931;28;86422;-46
2021/12/26 09:38:46;;;;;;;;;;;4.60;85.50;;;;;;5004713;28;87973;-46
2021/12/26 09:41:12;;;;;;;;;;;4.60;85.60;;;;;;5004184;28;89601;-47
2021/12/26 09:43:38;;;;;;;;;;;4.60;85.60;;;;;;5003977;28;87778;-45
2021/12/26 09:46:03;;;;;;;;;;;4.60;85.70;;;;;;5004555;28;89707;-45
2021/12/26 09:48:29;;;;;;;;;;;4.60;85.70;;;;;;5004126;28;88589;-46
2021/12/26 09:50:55;;;;;;;;;;;4.60;85.70;;;;;;5003444;28;87181;-48
2021/12/26 09:53:20;;;;;;;;;;;4.70;86.40;;;;;;5007133;28;88596;-47
2021/12/26 09:55:46;;;;;;;;;;;4.70;85.80;;;;;;5004621;28;86953;-46
2021/12/26 09:58:11;;;;;;;;;;;4.70;85.80;;;;;;5004514;28;89404;-46
2021/12/26 10:00:39;;;;;;;;;;;4.70;85.90;;;;;;5004635;28;88860;-46
2021/12/26 10:03:13;;;;;;;;;;;4.70;86.00;;;;;;5004455;28;87138;-46
2021/12/26 10:05:58;;;;;;;;;;;4.70;86.00;;;;;;5004068;28;88667;-47
2021/12/26 10:08:23;;;;;;;;;;;4.70;86.30;;;;;;5003169;28;90323;-46
2021/12/26 10:11:08;;;;;;;;;;;4.80;86.30;;;;;;5004279;28;87181;-46
2021/12/26 10:13:37;;;;;;;;;;;4.70;86.40;;;;;;5004271;28;87760;-46
2021/12/26 10:16:03;;;;;;;;;;;4.80;86.70;;;;;;5006189;28;89349;-46
2021/12/26 10:18:29;;;;;;;;;;;4.80;86.70;;;;;;5004063;28;89771;-46
2021/12/26 10:20:55;;;;;;;;;;;4.80;87.00;;;;;;5003640;28;89247;-46
2021/12/26 10:23:24;;;;;;;;;;;4.80;87.00;;;;;;5004024;28;86812;-46
2021/12/26 10:25:49;;;;;;;;;;;4.80;87.00;;;;;;5004379;28;89043;-47
2021/12/26 10:28:15;;;;;;;;;;;4.80;87.10;;;;;;5003464;28;90242;-46
2021/12/26 10:30:44;;;;;;;;;;;4.80;87.10;;;;;;5004130;28;87225;-47
2021/12/26 10:33:09;;;;;;;;;;;4.80;87.10;;;;;;5003446;28;88850;-45
2021/12/26 10:35:35;;;;;;;;;;;4.80;87.20;;;;;;5003548;28;90089;-45
2021/12/26 10:38:00;;;;;;;;;;;4.80;87.10;;;;;;5006746;28;87197;-46
2021/12/26 10:40:28;;;;;;;;;;;4.80;87.30;;;;;;5003423;28;88849;-45
2021/12/26 10:42:57;;;;;;;;;;;4.80;87.30;;;;;;5003724;28;87101;-46
2021/12/26 10:45:25;;;;;;;;;;;4.80;87.40;;;;;;5003774;28;88385;-46
2021/12/26 10:47:51;;;;;;;;;;;4.80;87.40;;;;;;5003390;28;88749;-46
2021/12/26 10:50:19;;;;;;;;;;;4.90;87.50;;;;;;5004190;28;86389;-46
2021/12/26 10:52:48;;;;;;;;;;;4.90;88.00;;;;;;5003673;28;87239;-46
2021/12/26 10:55:15;;;;;;;;;;;4.90;87.60;;;;;;5003045;28;89577;-47
2021/12/26 10:57:45;;;;;;;;;;;4.90;87.60;;;;;;5002644;28;87904;-46
2021/12/26 11:00:17;;;;;;;;;;;4.90;87.60;;;;;;5006071;28;88637;-46
2021/12/26 11:03:06;;;;;;;;;;;4.90;87.60;;;;;;5003383;28;86926;-46
2021/12/26 11:05:38;;;;;;;;;;;4.90;87.60;;;;;;5000003;28;87554;-46
2021/12/26 11:08:05;;;;;;;;;;;4.90;87.60;;;;;;5002927;28;89473;-46
2021/12/26 11:10:51;;;;;;;;;;;5.00;87.70;;;;;;5003361;28;87047;-47
2021/12/26 11:13:16;;;;;;;;;;;5.00;87.90;;;;;;5003240;28;89042;-45
2021/12/26 11:15:42;;;;;;;;;;;5.00;87.90;;;;;;5003188;28;87897;-48
2021/12/26 11:18:09;;;;;;;;;;;5.00;88.00;;;;;;5003146;28;87178;-45
2021/12/26 11:20:38;;;;;;;;;;;5.00;88.00;;;;;;5005793;28;88740;-46
2021/12/26 11:23:11;;;;;;;;;;;5.00;88.00;;;;;;5002768;28;88145;-47
2021/12/26 11:25:40;;;;;;;;;;;5.00;88.10;;;;;;5003245;28;88261;-45
2021/12/26 11:28:06;;;;;;;;;;;5.00;88.10;;;;;;5002780;28;91110;-46
2021/12/26 11:30:32;;;;;;;;;;;5.00;88.10;;;;;;5003045;28;87098;-46
2021/12/26 11:32:58;;;;;;;;;;;5.00;88.20;;;;;;5003083;28;88355;-47
2021/12/26 11:35:24;;;;;;;;;;;5.10;88.30;;;;;;5002978;28;88099;-47
2021/12/26 11:37:50;;;;;;;;;;;5.10;88.30;;;;;;5002977;28;87063;-46
2021/12/26 11:40:16;;;;;;;;;;;5.10;88.30;;;;;;5003480;28;89294;-45
2021/12/26 11:42:57;;;;;;;;;;;5.10;88.30;;;;;;5005618;28;89508;-46
2021/12/26 11:45:27;;;;;;;;;;;5.10;88.50;;;;;;5003110;28;89039;-46
2021/12/26 11:48:10;;;;;;;;;;;5.10;88.40;;;;;;5000586;28;93321;-45
2021/12/26 11:50:49;;;;;;;;;;;5.10;88.50;;;;;;5002925;28;86908;-45
2021/12/26 11:53:35;;;;;;;;;;;5.10;88.60;;;;;;5002975;28;88906;-46
2021/12/26 11:56:23;;;;;;;;;;;5.10;88.60;;;;;;5001276;28;91637;-46
2021/12/26 11:58:49;;;;;;;;;;;5.10;88.70;;;;;;4998900;28;87131;-46
2021/12/26 12:01:17;;;;;;;;;;;5.20;88.60;;;;;;5002857;28;89036;-48
2021/12/26 12:03:42;;;;;;;;;;;5.10;88.60;;;;;;5002345;28;88559;-46
2021/12/26 12:06:22;;;;;;;;;;;5.20;88.70;;;;;;5005981;28;86341;-45
2021/12/26 12:08:47;;;;;;;;;;;5.20;88.70;;;;;;5002147;28;89615;-46
2021/12/26 12:11:13;;;;;;;;;;;5.20;88.70;;;;;;5002672;28;87083;-47
2021/12/26 12:13:38;;;;;;;;;;;5.20;88.80;;;;;;5003328;28;89062;-47
2021/12/26 12:16:05;;;;;;;;;;;5.20;88.80;;;;;;5005204;28;89874;-46
2021/12/26 12:18:34;;;;;;;;;;;5.20;88.90;;;;;;5006058;28;86787;-49
2021/12/26 12:21:06;;;;;;;;;;;5.20;88.90;;;;;;5006027;28;88965;-46
2021/12/26 12:23:32;;;;;;;;;;;5.20;89.00;;;;;;5005267;28;89454;-45
2021/12/26 12:25:57;;;;;;;;;;;5.20;88.90;;;;;;5005810;28;87222;-46
2021/12/26 12:28:28;;;;;;;;;;;5.20;88.90;;;;;;5008653;28;87330;-46
2021/12/26 12:30:56;;;;;;;;;;;5.20;88.90;;;;;;5006410;28;86291;-45
2021/12/26 12:33:31;;;;;;;;;;;5.20;89.00;;;;;;5005981;28;88307;-45
2021/12/26 12:35:59;;;;;;;;;;;5.30;89.00;;;;;;5005198;28;89195;-45
2021/12/26 12:38:38;;;;;;;;;;;5.30;89.10;;;;;;5004887;28;88063;-45
2021/12/26 12:41:04;;;;;;;;;;;5.30;89.20;;;;;;5005505;28;89529;-47
2021/12/26 12:43:30;;;;;;;;;;;5.30;89.10;;;;;;5005237;28;89125;-46
2021/12/26 12:45:59;;;;;;;;;;;5.30;89.10;;;;;;5005342;28;87143;-45
2021/12/26 12:48:28;;;;;;;;;;;5.30;89.10;;;;;;5005559;28;88556;-46
2021/12/26 12:50:55;;;;;;;;;;;5.30;89.10;;;;;;5008225;28;87979;-46
2021/12/26 12:53:40;;;;;;;;;;;5.40;89.20;;;;;;5005515;28;88911;-47
2021/12/26 12:56:06;;;;;;;;;;;5.30;89.10;;;;;;5005796;28;87234;-46
2021/12/26 12:58:32;;;;;;;;;;;5.40;89.20;;;;;;5005274;28;87098;-45
2021/12/26 13:00:58;;;;;;;;;;;5.40;89.20;;;;;;5005375;28;88846;-46
2021/12/26 13:03:24;;;;;;;;;;;5.30;89.20;;;;;;5003988;28;90595;-45
2021/12/26 13:05:50;;;;;;;;;;;5.40;89.30;;;;;;5005272;28;86909;-47
2021/12/26 13:08:16;;;;;;;;;;;5.40;89.20;;;;;;5005234;28;88605;-47
2021/12/26 13:10:42;;;;;;;;;;;5.40;89.20;;;;;;5004903;28;88551;-45
2021/12/26 13:13:13;;;;;;;;;;;5.40;89.20;;;;;;5008112;28;87478;-46
2021/12/26 13:16:08;;;;;;;;;;;5.40;89.30;;;;;;5004093;28;89239;-46
2021/12/26 13:18:35;;;;;;;;;;;5.40;89.30;;;;;;4999810;28;87252;-46
2021/12/26 13:21:05;;;;;;;;;;;5.40;89.30;;;;;;5005421;28;88697;-48
2021/12/26 13:23:31;;;;;;;;;;;5.40;89.30;;;;;;5004675;28;88055;-46
2021/12/26 13:26:00;;;;;;;;;;;5.40;89.30;;;;;;5004889;28;87110;-46
2021/12/26 13:28:27;;;;;;;;;;;5.50;89.40;;;;;;5004339;28;87741;-46
2021/12/26 13:30:56;;;;;;;;;;;5.40;89.40;;;;;;5004710;28;89501;-47
2021/12/26 13:33:34;;;;;;;;;;;5.50;89.50;;;;;;5007758;28;87152;-46
2021/12/26 13:36:26;;;;;;;;;;;5.50;89.50;;;;;;5004411;28;89511;-45
2021/12/26 13:38:54;;;;;;;;;;;5.50;89.40;;;;;;5003077;28;87212;-45
2021/12/26 13:41:24;;;;;;;;;;;5.50;89.40;;;;;;5004667;28;88908;-45
2021/12/26 13:43:50;;;;;;;;;;;5.50;89.50;;;;;;5004235;28;91306;-45
2021/12/26 13:46:17;;;;;;;;;;;5.50;89.50;;;;;;5004907;28;86308;-47
2021/12/26 13:48:43;;;;;;;;;;;5.50;89.50;;;;;;5004412;28;88390;-46
2021/12/26 13:51:27;;;;;;;;;;;5.50;89.40;;;;;;5004061;28;89276;-46
2021/12/26 13:54:05;;;;;;;;;;;5.50;89.50;;;;;;5003906;28;88203;-46
2021/12/26 13:56:30;;;;;;;;;;;5.60;89.50;;;;;;5007169;28;88771;-46
2021/12/26 13:58:57;;;;;;;;;;;5.60;89.60;;;;;;5004474;28;87080;-45
2021/12/26 14:01:24;;;;;;;;;;;5.60;89.60;;;;;;5004396;28;88886;-46
2021/12/26 14:03:49;;;;;;;;;;;5.50;89.50;;;;;;5003828;28;89460;-46
2021/12/26 14:06:24;;;;;;;;;;;5.50;89.60;;;;;;5004449;28;87214;-47
2021/12/26 14:08:54;;;;;;;;;;;5.60;89.60;;;;;;5004293;28;88994;-46
2021/12/26 14:11:20;;;;;;;;;;;5.60;89.70;;;;;;5004453;28;87510;-46
2021/12/26 14:13:49;;;;;;;;;;;5.60;89.70;;;;;;5004201;28;87121;-45
2021/12/26 14:16:25;;;;;;;;;;;5.60;89.70;;;;;;5003860;28;88903;-46
2021/12/26 14:18:50;;;;;;;;;;;5.60;89.70;;;;;;5006219;28;90836;-46
2021/12/26 14:21:18;;;;;;;;;;;5.60;89.70;;;;;;5004152;28;89679;-46
2021/12/26 14:23:45;;;;;;;;;;;5.60;89.80;;;;;;5003575;28;89447;-46
2021/12/26 14:26:12;;;;;;;;;;;5.60;89.70;;;;;;5003769;28;87114;-48
2021/12/26 14:28:39;;;;;;;;;;;5.60;89.80;;;;;;5003982;28;88952;-46
2021/12/26 14:31:05;;;;;;;;;;;5.70;89.90;;;;;;5003189;28;89540;-46